sensor_id;sensor_type;location;lat;lon;timestamp;P1;durP1;ratioP1;P2;durP2;ratioP2
19645;SDS011;9971;52.446;13.452;2023-02-01T00:00:48;11.35;;;2.92;;
19645;SDS011;9971;52.446;13.452;2023-02-01T00:05:54;11.25;;;2.80;;
19645;SDS011;9971;52.446;13.452;2023-02-01T00:10:59;9.95;;;2.87;;
19645;SDS011;9971;52.446;13.452;2023-02-01T00:16:06;10.57;;;4.07;;
19645;SDS011;9971;52.446;13.452;2023-02-01T00:21:10;8.80;;;2.67;;
19645;SDS011;9971;52.446;13.452;2023-02-01T00:26:15;8.27;;;2.23;;
19645;SDS011;9971;52.446;13.452;2023-02-01T00:31:15;9.23;;;2.50;;
19645;SDS011;9971;52.446;13.452;2023-02-01T00:36:18;11.45;;;3.40;;
19645;SDS011;9971;52.446;13.452;2023-02-01T00:41:20;12.37;;;3.03;;
19645;SDS011;9971;52.446;13.452;2023-02-01T00:46:22;9.53;;;3.00;;
19645;SDS011;9971;52.446;13.452;2023-02-01T00:51:25;7.40;;;2.80;;
19645;SDS011;9971;52.446;13.452;2023-02-01T00:56:26;10.00;;;3.03;;
19645;SDS011;9971;52.446;13.452;2023-02-01T01:01:28;12.05;;;3.30;;
19645;SDS011;9971;52.446;13.452;2023-02-01T01:06:32;8.35;;;2.58;;
19645;SDS011;9971;52.446;13.452;2023-02-01T01:11:35;7.53;;;2.50;;
19645;SDS011;9971;52.446;13.452;2023-02-01T01:16:36;7.22;;;2.20;;
19645;SDS011;9971;52.446;13.452;2023-02-01T01:21:38;7.73;;;3.00;;
19645;SDS011;9971;52.446;13.452;2023-02-01T01:26:43;9.98;;;2.47;;
19645;SDS011;9971;52.446;13.452;2023-02-01T01:31:45;7.80;;;2.23;;
19645;SDS011;9971;52.446;13.452;2023-02-01T01:36:48;8.98;;;2.30;;
19645;SDS011;9971;52.446;13.452;2023-02-01T01:41:50;6.53;;;2.42;;
19645;SDS011;9971;52.446;13.452;2023-02-01T01:46:53;6.87;;;2.58;;
19645;SDS011;9971;52.446;13.452;2023-02-01T01:51:56;7.78;;;3.12;;
19645;SDS011;9971;52.446;13.452;2023-02-01T01:56:59;7.27;;;2.47;;
19645;SDS011;9971;52.446;13.452;2023-02-01T02:02:03;7.27;;;2.93;;
19645;SDS011;9971;52.446;13.452;2023-02-01T02:07:08;10.05;;;2.58;;
19645;SDS011;9971;52.446;13.452;2023-02-01T02:12:10;6.87;;;2.30;;
19645;SDS011;9971;52.446;13.452;2023-02-01T02:17:16;9.13;;;2.45;;
19645;SDS011;9971;52.446;13.452;2023-02-01T02:28:07;7.47;;;2.30;;
19645;SDS011;9971;52.446;13.452;2023-02-01T02:34:24;7.60;;;2.22;;
19645;SDS011;9971;52.446;13.452;2023-02-01T02:38:40;8.93;;;2.87;;
19645;SDS011;9971;52.446;13.452;2023-02-01T02:43:56;8.53;;;2.57;;
19645;SDS011;9971;52.446;13.452;2023-02-01T02:49:05;9.87;;;2.57;;
19645;SDS011;9971;52.446;13.452;2023-02-01T02:54:07;8.93;;;2.47;;
19645;SDS011;9971;52.446;13.452;2023-02-01T02:59:14;7.87;;;2.80;;
19645;SDS011;9971;52.446;13.452;2023-02-01T03:04:20;10.57;;;2.43;;
19645;SDS011;9971;52.446;13.452;2023-02-01T03:09:26;14.65;;;2.92;;
19645;SDS011;9971;52.446;13.452;2023-02-01T03:14:27;8.23;;;2.70;;
19645;SDS011;9971;52.446;13.452;2023-02-01T03:19:32;11.35;;;3.42;;
19645;SDS011;9971;52.446;13.452;2023-02-01T03:24:41;9.20;;;2.80;;
19645;SDS011;9971;52.446;13.452;2023-02-01T03:29:48;11.37;;;3.10;;
19645;SDS011;9971;52.446;13.452;2023-02-01T03:35:04;9.67;;;2.53;;
19645;SDS011;9971;52.446;13.452;2023-02-01T03:40:07;8.05;;;3.33;;
19645;SDS011;9971;52.446;13.452;2023-02-01T03:45:13;10.97;;;2.50;;
19645;SDS011;9971;52.446;13.452;2023-02-01T03:55:16;9.10;;;3.23;;
19645;SDS011;9971;52.446;13.452;2023-02-01T04:00:19;8.93;;;2.73;;
19645;SDS011;9971;52.446;13.452;2023-02-01T04:05:21;10.20;;;2.73;;
19645;SDS011;9971;52.446;13.452;2023-02-01T04:10:23;9.23;;;2.87;;
19645;SDS011;9971;52.446;13.452;2023-02-01T04:15:25;8.57;;;3.00;;
19645;SDS011;9971;52.446;13.452;2023-02-01T04:20:27;8.50;;;3.05;;
19645;SDS011;9971;52.446;13.452;2023-02-01T04:25:29;9.43;;;2.70;;
19645;SDS011;9971;52.446;13.452;2023-02-01T04:30:32;10.63;;;3.42;;
19645;SDS011;9971;52.446;13.452;2023-02-01T04:35:34;14.40;;;3.07;;
19645;SDS011;9971;52.446;13.452;2023-02-01T04:40:36;8.50;;;2.98;;
19645;SDS011;9971;52.446;13.452;2023-02-01T04:45:39;8.28;;;2.67;;
19645;SDS011;9971;52.446;13.452;2023-02-01T04:50:42;12.90;;;3.42;;
19645;SDS011;9971;52.446;13.452;2023-02-01T04:55:43;10.43;;;3.13;;
19645;SDS011;9971;52.446;13.452;2023-02-01T05:00:45;10.70;;;2.83;;
19645;SDS011;9971;52.446;13.452;2023-02-01T05:05:48;5.20;;;2.20;;
19645;SDS011;9971;52.446;13.452;2023-02-01T05:10:50;7.83;;;2.63;;
19645;SDS011;9971;52.446;13.452;2023-02-01T05:15:52;10.23;;;2.87;;
19645;SDS011;9971;52.446;13.452;2023-02-01T05:20:55;11.93;;;3.05;;
19645;SDS011;9971;52.446;13.452;2023-02-01T05:25:58;10.48;;;3.25;;
19645;SDS011;9971;52.446;13.452;2023-02-01T05:30:59;10.90;;;3.25;;
19645;SDS011;9971;52.446;13.452;2023-02-01T05:36:02;10.48;;;3.67;;
19645;SDS011;9971;52.446;13.452;2023-02-01T05:41:04;10.10;;;3.50;;
19645;SDS011;9971;52.446;13.452;2023-02-01T05:46:07;9.88;;;2.72;;
19645;SDS011;9971;52.446;13.452;2023-02-01T05:51:09;9.37;;;2.60;;
19645;SDS011;9971;52.446;13.452;2023-02-01T05:56:11;8.38;;;3.15;;
19645;SDS011;9971;52.446;13.452;2023-02-01T06:01:13;8.00;;;2.72;;
19645;SDS011;9971;52.446;13.452;2023-02-01T06:06:16;12.58;;;3.75;;
19645;SDS011;9971;52.446;13.452;2023-02-01T06:11:18;8.05;;;2.80;;
19645;SDS011;9971;52.446;13.452;2023-02-01T06:16:21;7.65;;;2.83;;
19645;SDS011;9971;52.446;13.452;2023-02-01T06:21:23;8.73;;;2.87;;
19645;SDS011;9971;52.446;13.452;2023-02-01T06:26:25;7.42;;;2.30;;
19645;SDS011;9971;52.446;13.452;2023-02-01T06:31:28;10.60;;;3.65;;
19645;SDS011;9971;52.446;13.452;2023-02-01T06:36:31;14.55;;;3.15;;
19645;SDS011;9971;52.446;13.452;2023-02-01T06:41:33;12.28;;;3.45;;
19645;SDS011;9971;52.446;13.452;2023-02-01T06:46:36;7.83;;;2.55;;
19645;SDS011;9971;52.446;13.452;2023-02-01T06:51:38;8.67;;;3.27;;
19645;SDS011;9971;52.446;13.452;2023-02-01T06:56:41;9.83;;;2.87;;
19645;SDS011;9971;52.446;13.452;2023-02-01T07:01:43;5.70;;;1.82;;
19645;SDS011;9971;52.446;13.452;2023-02-01T07:06:46;11.13;;;2.53;;
19645;SDS011;9971;52.446;13.452;2023-02-01T07:11:48;9.08;;;2.52;;
19645;SDS011;9971;52.446;13.452;2023-02-01T07:16:51;7.90;;;2.87;;
19645;SDS011;9971;52.446;13.452;2023-02-01T07:21:53;9.80;;;2.50;;
19645;SDS011;9971;52.446;13.452;2023-02-01T07:26:56;10.53;;;2.95;;
19645;SDS011;9971;52.446;13.452;2023-02-01T07:31:58;11.23;;;3.10;;
19645;SDS011;9971;52.446;13.452;2023-02-01T07:37:00;10.58;;;2.85;;
19645;SDS011;9971;52.446;13.452;2023-02-01T07:42:03;5.97;;;2.92;;
19645;SDS011;9971;52.446;13.452;2023-02-01T07:47:05;5.10;;;2.80;;
19645;SDS011;9971;52.446;13.452;2023-02-01T07:52:08;6.90;;;2.40;;
19645;SDS011;9971;52.446;13.452;2023-02-01T07:57:10;7.40;;;2.95;;
19645;SDS011;9971;52.446;13.452;2023-02-01T08:02:12;4.75;;;2.12;;
19645;SDS011;9971;52.446;13.452;2023-02-01T08:07:15;6.10;;;2.60;;
19645;SDS011;9971;52.446;13.452;2023-02-01T08:12:17;4.75;;;2.22;;
19645;SDS011;9971;52.446;13.452;2023-02-01T08:17:20;6.60;;;2.25;;
19645;SDS011;9971;52.446;13.452;2023-02-01T08:22:22;3.72;;;2.00;;
19645;SDS011;9971;52.446;13.452;2023-02-01T08:27:25;3.35;;;1.90;;
19645;SDS011;9971;52.446;13.452;2023-02-01T08:32:27;4.30;;;1.82;;
19645;SDS011;9971;52.446;13.452;2023-02-01T08:37:30;4.92;;;2.10;;
19645;SDS011;9971;52.446;13.452;2023-02-01T08:42:32;4.33;;;2.00;;
19645;SDS011;9971;52.446;13.452;2023-02-01T08:47:39;5.07;;;1.80;;
19645;SDS011;9971;52.446;13.452;2023-02-01T08:52:42;3.35;;;1.82;;
19645;SDS011;9971;52.446;13.452;2023-02-01T08:57:44;5.23;;;1.77;;
19645;SDS011;9971;52.446;13.452;2023-02-01T09:02:47;3.80;;;1.65;;
19645;SDS011;9971;52.446;13.452;2023-02-01T09:07:49;3.05;;;1.50;;
19645;SDS011;9971;52.446;13.452;2023-02-01T09:12:52;2.95;;;1.50;;
19645;SDS011;9971;52.446;13.452;2023-02-01T09:17:54;2.22;;;1.00;;
19645;SDS011;9971;52.446;13.452;2023-02-01T09:22:57;2.37;;;1.02;;
19645;SDS011;9971;52.446;13.452;2023-02-01T09:27:59;2.07;;;1.13;;
19645;SDS011;9971;52.446;13.452;2023-02-01T09:33:02;2.40;;;1.15;;
19645;SDS011;9971;52.446;13.452;2023-02-01T09:38:04;1.07;;;0.63;;
19645;SDS011;9971;52.446;13.452;2023-02-01T09:43:11;0.85;;;0.70;;
19645;SDS011;9971;52.446;13.452;2023-02-01T09:48:29;0.93;;;0.70;;
19645;SDS011;9971;52.446;13.452;2023-02-01T09:53:34;1.43;;;0.80;;
19645;SDS011;9971;52.446;13.452;2023-02-01T09:58:37;1.32;;;0.78;;
19645;SDS011;9971;52.446;13.452;2023-02-01T10:03:38;1.27;;;0.77;;
19645;SDS011;9971;52.446;13.452;2023-02-01T10:08:56;0.88;;;0.80;;
19645;SDS011;9971;52.446;13.452;2023-02-01T10:14:07;2.07;;;0.90;;
19645;SDS011;9971;52.446;13.452;2023-02-01T10:19:13;1.47;;;0.85;;
19645;SDS011;9971;52.446;13.452;2023-02-01T10:24:20;1.35;;;0.88;;
19645;SDS011;9971;52.446;13.452;2023-02-01T10:29:19;2.27;;;1.07;;
19645;SDS011;9971;52.446;13.452;2023-02-01T10:34:22;1.63;;;0.80;;
19645;SDS011;9971;52.446;13.452;2023-02-01T10:39:23;2.27;;;1.13;;
19645;SDS011;9971;52.446;13.452;2023-02-01T10:44:26;4.27;;;1.23;;
19645;SDS011;9971;52.446;13.452;2023-02-01T10:49:32;3.07;;;1.70;;
19645;SDS011;9971;52.446;13.452;2023-02-01T10:54:32;2.13;;;0.90;;
19645;SDS011;9971;52.446;13.452;2023-02-01T10:59:33;2.53;;;1.13;;
19645;SDS011;9971;52.446;13.452;2023-02-01T11:04:35;3.55;;;1.10;;
19645;SDS011;9971;52.446;13.452;2023-02-01T11:09:39;2.03;;;0.80;;
19645;SDS011;9971;52.446;13.452;2023-02-01T11:14:40;1.13;;;0.80;;
19645;SDS011;9971;52.446;13.452;2023-02-01T11:19:44;2.02;;;1.12;;
19645;SDS011;9971;52.446;13.452;2023-02-01T11:24:45;5.53;;;1.92;;
19645;SDS011;9971;52.446;13.452;2023-02-01T11:29:48;3.33;;;1.33;;
19645;SDS011;9971;52.446;13.452;2023-02-01T11:34:51;3.83;;;1.60;;
19645;SDS011;9971;52.446;13.452;2023-02-01T11:39:57;2.93;;;1.23;;
19645;SDS011;9971;52.446;13.452;2023-02-01T11:45:31;3.33;;;1.30;;
19645;SDS011;9971;52.446;13.452;2023-02-01T11:50:17;2.67;;;1.20;;
19645;SDS011;9971;52.446;13.452;2023-02-01T11:55:28;3.87;;;1.47;;
19645;SDS011;9971;52.446;13.452;2023-02-01T12:00:29;4.12;;;1.65;;
19645;SDS011;9971;52.446;13.452;2023-02-01T12:05:47;2.30;;;1.30;;
19645;SDS011;9971;52.446;13.452;2023-02-01T12:11:04;2.73;;;1.23;;
19645;SDS011;9971;52.446;13.452;2023-02-01T12:16:28;2.57;;;1.13;;
19645;SDS011;9971;52.446;13.452;2023-02-01T12:21:42;4.20;;;1.50;;
19645;SDS011;9971;52.446;13.452;2023-02-01T12:32:11;6.97;;;1.93;;
19645;SDS011;9971;52.446;13.452;2023-02-01T12:37:21;4.10;;;1.70;;
19645;SDS011;9971;52.446;13.452;2023-02-01T12:42:25;4.75;;;1.85;;
19645;SDS011;9971;52.446;13.452;2023-02-01T12:47:44;3.97;;;1.77;;
19645;SDS011;9971;52.446;13.452;2023-02-01T12:52:44;3.90;;;1.15;;
19645;SDS011;9971;52.446;13.452;2023-02-01T12:57:49;4.92;;;1.62;;
19645;SDS011;9971;52.446;13.452;2023-02-01T13:02:55;3.40;;;1.95;;
19645;SDS011;9971;52.446;13.452;2023-02-01T13:07:58;3.93;;;1.30;;
19645;SDS011;9971;52.446;13.452;2023-02-01T13:13:17;4.90;;;1.83;;
19645;SDS011;9971;52.446;13.452;2023-02-01T13:18:32;3.73;;;1.50;;
19645;SDS011;9971;52.446;13.452;2023-02-01T13:23:31;4.27;;;1.40;;
19645;SDS011;9971;52.446;13.452;2023-02-01T13:28:51;4.28;;;1.67;;
19645;SDS011;9971;52.446;13.452;2023-02-01T13:34:03;3.07;;;1.53;;
19645;SDS011;9971;52.446;13.452;2023-02-01T13:39:19;3.80;;;1.27;;
19645;SDS011;9971;52.446;13.452;2023-02-01T13:44:19;3.00;;;1.27;;
19645;SDS011;9971;52.446;13.452;2023-02-01T13:49:21;6.47;;;1.83;;
19645;SDS011;9971;52.446;13.452;2023-02-01T13:54:31;3.47;;;1.52;;
19645;SDS011;9971;52.446;13.452;2023-02-01T13:59:51;4.17;;;1.60;;
19645;SDS011;9971;52.446;13.452;2023-02-01T14:04:52;3.87;;;1.30;;
19645;SDS011;9971;52.446;13.452;2023-02-01T14:09:55;2.55;;;1.30;;
19645;SDS011;9971;52.446;13.452;2023-02-01T14:15:33;1.97;;;1.20;;
19645;SDS011;9971;52.446;13.452;2023-02-01T14:20:46;3.07;;;1.40;;
19645;SDS011;9971;52.446;13.452;2023-02-01T14:25:47;3.83;;;1.73;;
19645;SDS011;9971;52.446;13.452;2023-02-01T14:30:48;3.73;;;1.60;;
19645;SDS011;9971;52.446;13.452;2023-02-01T14:36:02;6.43;;;2.10;;
19645;SDS011;9971;52.446;13.452;2023-02-01T14:51:41;5.87;;;2.17;;
19645;SDS011;9971;52.446;13.452;2023-02-01T14:56:43;6.33;;;1.73;;
19645;SDS011;9971;52.446;13.452;2023-02-01T15:01:48;3.20;;;1.50;;
19645;SDS011;9971;52.446;13.452;2023-02-01T15:06:49;4.75;;;1.47;;
19645;SDS011;9971;52.446;13.452;2023-02-01T15:11:56;3.98;;;1.40;;
19645;SDS011;9971;52.446;13.452;2023-02-01T15:22:18;3.20;;;1.30;;
19645;SDS011;9971;52.446;13.452;2023-02-01T15:27:20;2.43;;;1.20;;
19645;SDS011;9971;52.446;13.452;2023-02-01T15:37:30;3.13;;;1.23;;
19645;SDS011;9971;52.446;13.452;2023-02-01T15:42:32;2.07;;;1.33;;
19645;SDS011;9971;52.446;13.452;2023-02-01T15:47:35;1.93;;;1.07;;
19645;SDS011;9971;52.446;13.452;2023-02-01T15:52:37;2.95;;;1.10;;
19645;SDS011;9971;52.446;13.452;2023-02-01T15:57:39;1.93;;;1.00;;
19645;SDS011;9971;52.446;13.452;2023-02-01T16:02:42;2.90;;;1.70;;
19645;SDS011;9971;52.446;13.452;2023-02-01T16:07:53;1.80;;;1.20;;
19645;SDS011;9971;52.446;13.452;2023-02-01T16:12:46;2.17;;;1.03;;
19645;SDS011;9971;52.446;13.452;2023-02-01T16:17:47;1.23;;;0.87;;
19645;SDS011;9971;52.446;13.452;2023-02-01T16:22:49;0.72;;;0.60;;
19645;SDS011;9971;52.446;13.452;2023-02-01T16:27:52;0.45;;;0.35;;
19645;SDS011;9971;52.446;13.452;2023-02-01T16:32:55;0.47;;;0.47;;
19645;SDS011;9971;52.446;13.452;2023-02-01T16:37:57;1.60;;;0.50;;
19645;SDS011;9971;52.446;13.452;2023-02-01T16:42:58;0.67;;;0.47;;
19645;SDS011;9971;52.446;13.452;2023-02-01T16:48:01;0.37;;;0.37;;
19645;SDS011;9971;52.446;13.452;2023-02-01T16:53:03;0.37;;;0.37;;
19645;SDS011;9971;52.446;13.452;2023-02-01T16:58:06;0.72;;;0.50;;
19645;SDS011;9971;52.446;13.452;2023-02-01T17:03:10;0.37;;;0.37;;
19645;SDS011;9971;52.446;13.452;2023-02-01T17:08:12;1.90;;;0.80;;
19645;SDS011;9971;52.446;13.452;2023-02-01T17:13:14;1.50;;;0.50;;
19645;SDS011;9971;52.446;13.452;2023-02-01T17:18:16;1.83;;;0.70;;
19645;SDS011;9971;52.446;13.452;2023-02-01T17:23:18;0.67;;;0.50;;
19645;SDS011;9971;52.446;13.452;2023-02-01T17:28:20;0.70;;;0.60;;
19645;SDS011;9971;52.446;13.452;2023-02-01T17:33:25;2.05;;;0.72;;
19645;SDS011;9971;52.446;13.452;2023-02-01T17:38:26;1.03;;;1.03;;
19645;SDS011;9971;52.446;13.452;2023-02-01T17:43:29;2.75;;;1.15;;
19645;SDS011;9971;52.446;13.452;2023-02-01T17:48:31;1.77;;;0.90;;
19645;SDS011;9971;52.446;13.452;2023-02-01T17:53:33;3.20;;;1.12;;
19645;SDS011;9971;52.446;13.452;2023-02-01T17:58:35;4.30;;;0.82;;
19645;SDS011;9971;52.446;13.452;2023-02-01T18:03:38;1.37;;;1.15;;
19645;SDS011;9971;52.446;13.452;2023-02-01T18:08:40;1.60;;;0.87;;
19645;SDS011;9971;52.446;13.452;2023-02-01T18:13:42;1.37;;;0.90;;
19645;SDS011;9971;52.446;13.452;2023-02-01T18:18:45;2.67;;;1.10;;
19645;SDS011;9971;52.446;13.452;2023-02-01T18:23:47;1.90;;;0.90;;
19645;SDS011;9971;52.446;13.452;2023-02-01T18:28:49;3.13;;;1.00;;
19645;SDS011;9971;52.446;13.452;2023-02-01T18:33:52;3.22;;;0.98;;
19645;SDS011;9971;52.446;13.452;2023-02-01T18:38:53;4.50;;;1.30;;
19645;SDS011;9971;52.446;13.452;2023-02-01T18:43:55;3.65;;;1.20;;
19645;SDS011;9971;52.446;13.452;2023-02-01T18:48:58;1.90;;;1.20;;
19645;SDS011;9971;52.446;13.452;2023-02-01T18:54:00;2.08;;;1.00;;
19645;SDS011;9971;52.446;13.452;2023-02-01T18:59:03;4.37;;;1.37;;
19645;SDS011;9971;52.446;13.452;2023-02-01T19:04:06;3.10;;;1.90;;
19645;SDS011;9971;52.446;13.452;2023-02-01T19:09:08;2.58;;;1.30;;
19645;SDS011;9971;52.446;13.452;2023-02-01T19:14:11;3.77;;;1.85;;
19645;SDS011;9971;52.446;13.452;2023-02-01T19:19:13;3.58;;;1.62;;
19645;SDS011;9971;52.446;13.452;2023-02-01T19:24:16;2.92;;;1.10;;
19645;SDS011;9971;52.446;13.452;2023-02-01T19:29:18;3.67;;;1.63;;
19645;SDS011;9971;52.446;13.452;2023-02-01T19:34:21;5.10;;;1.45;;
19645;SDS011;9971;52.446;13.452;2023-02-01T19:39:23;2.83;;;1.27;;
19645;SDS011;9971;52.446;13.452;2023-02-01T19:44:26;3.02;;;1.22;;
19645;SDS011;9971;52.446;13.452;2023-02-01T19:49:28;2.72;;;1.10;;
19645;SDS011;9971;52.446;13.452;2023-02-01T19:54:31;3.90;;;1.67;;
19645;SDS011;9971;52.446;13.452;2023-02-01T19:59:33;4.65;;;1.75;;
19645;SDS011;9971;52.446;13.452;2023-02-01T20:04:35;4.53;;;1.67;;
19645;SDS011;9971;52.446;13.452;2023-02-01T20:09:38;5.70;;;1.77;;
19645;SDS011;9971;52.446;13.452;2023-02-01T20:14:41;3.83;;;1.50;;
19645;SDS011;9971;52.446;13.452;2023-02-01T20:19:44;5.33;;;1.70;;
19645;SDS011;9971;52.446;13.452;2023-02-01T20:24:46;3.27;;;1.42;;
19645;SDS011;9971;52.446;13.452;2023-02-01T20:29:49;5.10;;;1.60;;
19645;SDS011;9971;52.446;13.452;2023-02-01T20:34:51;4.03;;;1.10;;
19645;SDS011;9971;52.446;13.452;2023-02-01T20:39:53;5.60;;;1.82;;
19645;SDS011;9971;52.446;13.452;2023-02-01T20:44:56;4.95;;;1.65;;
19645;SDS011;9971;52.446;13.452;2023-02-01T20:49:58;2.92;;;1.22;;
19645;SDS011;9971;52.446;13.452;2023-02-01T20:55:01;2.15;;;1.22;;
19645;SDS011;9971;52.446;13.452;2023-02-01T21:00:03;3.55;;;1.10;;
19645;SDS011;9971;52.446;13.452;2023-02-01T21:05:07;2.83;;;1.27;;
19645;SDS011;9971;52.446;13.452;2023-02-01T21:10:10;4.85;;;1.40;;
19645;SDS011;9971;52.446;13.452;2023-02-01T21:15:12;5.33;;;1.60;;
19645;SDS011;9971;52.446;13.452;2023-02-01T21:20:14;3.50;;;1.62;;
19645;SDS011;9971;52.446;13.452;2023-02-01T21:25:17;3.12;;;1.70;;
19645;SDS011;9971;52.446;13.452;2023-02-01T21:30:19;5.07;;;1.53;;
19645;SDS011;9971;52.446;13.452;2023-02-01T21:35:22;4.80;;;1.60;;
19645;SDS011;9971;52.446;13.452;2023-02-01T21:40:24;6.10;;;1.72;;
19645;SDS011;9971;52.446;13.452;2023-02-01T21:45:27;3.00;;;1.10;;
19645;SDS011;9971;52.446;13.452;2023-02-01T21:50:29;3.02;;;1.30;;
19645;SDS011;9971;52.446;13.452;2023-02-01T21:55:32;3.15;;;2.05;;
19645;SDS011;9971;52.446;13.452;2023-02-01T22:00:34;3.42;;;1.50;;
19645;SDS011;9971;52.446;13.452;2023-02-01T22:05:37;4.15;;;1.30;;
19645;SDS011;9971;52.446;13.452;2023-02-01T22:10:39;4.10;;;1.57;;
19645;SDS011;9971;52.446;13.452;2023-02-01T22:15:42;2.65;;;1.42;;
19645;SDS011;9971;52.446;13.452;2023-02-01T22:20:44;4.53;;;1.85;;
19645;SDS011;9971;52.446;13.452;2023-02-01T22:25:47;2.72;;;1.32;;
19645;SDS011;9971;52.446;13.452;2023-02-01T22:30:49;3.47;;;1.27;;
19645;SDS011;9971;52.446;13.452;2023-02-01T22:35:52;3.55;;;1.40;;
19645;SDS011;9971;52.446;13.452;2023-02-01T22:40:55;3.33;;;1.37;;
19645;SDS011;9971;52.446;13.452;2023-02-01T22:45:58;4.78;;;1.55;;
19645;SDS011;9971;52.446;13.452;2023-02-01T22:50:59;4.33;;;1.77;;
19645;SDS011;9971;52.446;13.452;2023-02-01T22:56:02;5.50;;;1.80;;
19645;SDS011;9971;52.446;13.452;2023-02-01T23:01:04;5.03;;;1.60;;
19645;SDS011;9971;52.446;13.452;2023-02-01T23:06:06;7.95;;;2.42;;
19645;SDS011;9971;52.446;13.452;2023-02-01T23:11:08;5.50;;;2.03;;
19645;SDS011;9971;52.446;13.452;2023-02-01T23:16:11;7.97;;;2.57;;
19645;SDS011;9971;52.446;13.452;2023-02-01T23:21:13;4.47;;;1.50;;
19645;SDS011;9971;52.446;13.452;2023-02-01T23:26:14;7.60;;;1.73;;
19645;SDS011;9971;52.446;13.452;2023-02-01T23:31:17;8.07;;;2.07;;
19645;SDS011;9971;52.446;13.452;2023-02-01T23:36:19;5.90;;;2.25;;
19645;SDS011;9971;52.446;13.452;2023-02-01T23:41:21;5.63;;;2.33;;
19645;SDS011;9971;52.446;13.452;2023-02-01T23:46:25;7.37;;;1.90;;
19645;SDS011;9971;52.446;13.452;2023-02-01T23:51:27;5.47;;;2.00;;
19645;SDS011;9971;52.446;13.452;2023-02-01T23:56:29;7.53;;;2.00;;
